History for KNYNEWYO254

Hell's Kitchen, New York, NY — Current Conditions
Daily Summary for June 28, 2017
  Current: High: Low: Average:
Temperature: 72.1°F 75.4°F 69.8°F 72.6°F
Dew Point: 52.8°F 52.8°F 50.6°F 51.6°F
Humidity: 50% 51% 44% 48%
Wind Speed: - 0.0mph - 0.0mph
Wind Gust: - 0.0mph - -
Wind: North - - North
Pressure: 30.10in 30.10in 30.02in -
Precipitation: 0.00in      
Statistics for the rest of the month
    High: Low: Average:
Temperature:   113.5°F 56.8°F 82.4°F
Dew Point:   76.9°F 39.9°F 59.0°F
Humidity:   83.0% 23.0% 51.8%
Wind Speed:   0.0mph from the North - 0.0mph
Wind Gust:   0.0mph from the North - -
Wind:   - - North
Pressure:   30.10in 29.56in -
Precipitation:   0.00in    
KNYNEWYO254 Weather Graph
Tabular Data for June 28, 2017
Time Temp. Dew Point Pressure Wind Gust Humidity Rainfall
00:03 75.4°F 52.3°F 30.02in - 44% -
00:13 75.0°F 52.0°F 30.02in - 44% -
00:30 74.3°F 51.9°F 30.03in - 45% -
00:40 74.3°F 51.9°F 30.03in - 45% -
00:50 73.6°F 51.3°F 30.03in - 45% -
01:01 73.8°F 52.6°F 30.03in - 47% -
01:11 73.8°F 52.0°F 30.03in - 46% -
01:21 73.2°F 51.5°F 30.03in - 46% -
01:31 73.4°F 52.3°F 30.03in - 47% -
01:43 72.9°F 51.8°F 30.03in - 47% -
02:05 72.9°F 51.8°F 30.03in - 47% -
02:19 72.7°F 51.6°F 30.03in - 47% -
02:30 73.0°F 51.4°F 30.04in - 46% -
02:31 72.9°F 51.2°F 30.04in - 46% -
02:41 72.1°F 51.1°F 30.04in - 47% -
03:08 72.0°F 51.5°F 30.05in - 48% -
03:18 71.8°F 51.3°F 30.05in - 48% -
03:30 72.1°F 51.7°F 30.05in - 48% -
03:42 71.4°F 51.0°F 30.05in - 48% -
04:08 71.1°F 51.2°F 30.06in - 49% -
04:10 71.2°F 51.4°F 30.06in - 49% -
04:22 70.5°F 50.7°F 30.06in - 49% -
04:32 70.9°F 51.1°F 30.06in - 49% -
04:42 70.3°F 51.1°F 30.07in - 50% -
05:17 69.8°F 50.6°F 30.08in - 50% -
05:29 69.8°F 51.1°F 30.08in - 51% -
05:49 70.0°F 51.3°F 30.08in - 51% -
06:18 70.3°F 51.6°F 30.09in - 51% -
06:28 72.1°F 52.8°F 30.10in - 50% -
Comma Delimited File
Powered by Weather Underground, Inc.